sensor_id;sensor_type;location;lat;lon;timestamp;P1;durP1;ratioP1;P2;durP2;ratioP2
325;SDS011;150;52.352;14.058;2023-02-02T00:02:31;4.20;;;1.70;;
325;SDS011;150;52.352;14.058;2023-02-02T00:05:09;6.27;;;2.00;;
325;SDS011;150;52.352;14.058;2023-02-02T00:07:39;6.18;;;1.85;;
325;SDS011;150;52.352;14.058;2023-02-02T00:10:25;5.40;;;1.85;;
325;SDS011;150;52.352;14.058;2023-02-02T00:12:52;11.07;;;2.40;;
325;SDS011;150;52.352;14.058;2023-02-02T00:15:37;6.40;;;2.10;;
325;SDS011;150;52.352;14.058;2023-02-02T00:18:31;7.93;;;2.00;;
325;SDS011;150;52.352;14.058;2023-02-02T00:21:10;7.50;;;1.45;;
325;SDS011;150;52.352;14.058;2023-02-02T00:23:54;7.57;;;1.90;;
325;SDS011;150;52.352;14.058;2023-02-02T00:26:28;11.13;;;2.33;;
325;SDS011;150;52.352;14.058;2023-02-02T00:29:04;5.07;;;1.52;;
325;SDS011;150;52.352;14.058;2023-02-02T00:31:39;8.20;;;2.40;;
325;SDS011;150;52.352;14.058;2023-02-02T00:34:16;7.47;;;1.55;;
325;SDS011;150;52.352;14.058;2023-02-02T00:36:50;8.07;;;1.73;;
325;SDS011;150;52.352;14.058;2023-02-02T00:39:24;5.70;;;1.58;;
325;SDS011;150;52.352;14.058;2023-02-02T00:42:01;4.47;;;2.00;;
325;SDS011;150;52.352;14.058;2023-02-02T00:44:34;6.72;;;1.80;;
325;SDS011;150;52.352;14.058;2023-02-02T00:47:27;5.43;;;1.77;;
325;SDS011;150;52.352;14.058;2023-02-02T00:50:08;7.00;;;2.67;;
325;SDS011;150;52.352;14.058;2023-02-02T00:52:46;6.60;;;1.90;;
325;SDS011;150;52.352;14.058;2023-02-02T00:55:27;3.63;;;1.60;;
325;SDS011;150;52.352;14.058;2023-02-02T00:58:30;8.40;;;1.90;;
325;SDS011;150;52.352;14.058;2023-02-02T01:01:13;5.18;;;2.10;;
325;SDS011;150;52.352;14.058;2023-02-02T01:04:05;7.97;;;1.88;;
325;SDS011;150;52.352;14.058;2023-02-02T01:06:45;3.33;;;1.80;;
325;SDS011;150;52.352;14.058;2023-02-02T01:09:19;4.80;;;1.77;;
325;SDS011;150;52.352;14.058;2023-02-02T01:12:06;6.20;;;1.83;;
325;SDS011;150;52.352;14.058;2023-02-02T01:14:54;7.18;;;1.83;;
325;SDS011;150;52.352;14.058;2023-02-02T01:17:24;7.30;;;1.95;;
325;SDS011;150;52.352;14.058;2023-02-02T01:19:56;9.48;;;1.83;;
325;SDS011;150;52.352;14.058;2023-02-02T01:22:23;7.70;;;1.60;;
325;SDS011;150;52.352;14.058;2023-02-02T01:24:50;6.70;;;1.40;;
325;SDS011;150;52.352;14.058;2023-02-02T01:27:20;7.10;;;1.90;;
325;SDS011;150;52.352;14.058;2023-02-02T01:30:12;8.33;;;2.87;;
325;SDS011;150;52.352;14.058;2023-02-02T01:32:42;6.07;;;2.15;;
325;SDS011;150;52.352;14.058;2023-02-02T01:35:12;5.05;;;1.73;;
325;SDS011;150;52.352;14.058;2023-02-02T01:37:50;10.82;;;1.98;;
325;SDS011;150;52.352;14.058;2023-02-02T01:40:20;5.40;;;1.55;;
325;SDS011;150;52.352;14.058;2023-02-02T01:42:58;10.88;;;1.83;;
325;SDS011;150;52.352;14.058;2023-02-02T01:45:33;9.63;;;2.13;;
325;SDS011;150;52.352;14.058;2023-02-02T01:48:03;7.22;;;1.70;;
325;SDS011;150;52.352;14.058;2023-02-02T01:50:33;6.32;;;1.85;;
325;SDS011;150;52.352;14.058;2023-02-02T01:53:01;3.08;;;1.13;;
325;SDS011;150;52.352;14.058;2023-02-02T01:55:36;9.20;;;1.67;;
325;SDS011;150;52.352;14.058;2023-02-02T01:58:10;5.37;;;2.00;;
325;SDS011;150;52.352;14.058;2023-02-02T02:01:11;4.43;;;1.23;;
325;SDS011;150;52.352;14.058;2023-02-02T02:03:44;9.13;;;2.10;;
325;SDS011;150;52.352;14.058;2023-02-02T02:06:23;5.60;;;1.70;;
325;SDS011;150;52.352;14.058;2023-02-02T02:09:02;8.30;;;2.35;;
325;SDS011;150;52.352;14.058;2023-02-02T02:18:54;7.87;;;2.10;;
325;SDS011;150;52.352;14.058;2023-02-02T02:21:55;8.80;;;1.98;;
325;SDS011;150;52.352;14.058;2023-02-02T02:29:16;5.90;;;1.80;;
325;SDS011;150;52.352;14.058;2023-02-02T02:35:11;5.18;;;1.85;;
325;SDS011;150;52.352;14.058;2023-02-02T02:40:59;7.97;;;1.80;;
325;SDS011;150;52.352;14.058;2023-02-02T03:00:57;3.45;;;1.80;;
325;SDS011;150;52.352;14.058;2023-02-02T03:01:42;4.82;;;1.75;;
325;SDS011;150;52.352;14.058;2023-02-02T03:04:58;8.18;;;2.50;;
325;SDS011;150;52.352;14.058;2023-02-02T03:08:12;5.20;;;1.13;;
325;SDS011;150;52.352;14.058;2023-02-02T03:10:59;7.20;;;1.88;;
325;SDS011;150;52.352;14.058;2023-02-02T03:13:35;6.57;;;1.70;;
325;SDS011;150;52.352;14.058;2023-02-02T03:16:15;11.43;;;2.30;;
325;SDS011;150;52.352;14.058;2023-02-02T03:19:06;5.45;;;2.20;;
325;SDS011;150;52.352;14.058;2023-02-02T03:33:21;5.55;;;1.80;;
325;SDS011;150;52.352;14.058;2023-02-02T03:36:37;3.80;;;1.20;;
325;SDS011;150;52.352;14.058;2023-02-02T03:39:29;8.43;;;2.20;;
325;SDS011;150;52.352;14.058;2023-02-02T03:47:59;5.70;;;1.20;;
325;SDS011;150;52.352;14.058;2023-02-02T03:53:45;4.87;;;1.47;;
325;SDS011;150;52.352;14.058;2023-02-02T03:59:52;7.47;;;1.35;;
325;SDS011;150;52.352;14.058;2023-02-02T04:06:04;9.82;;;1.60;;
325;SDS011;150;52.352;14.058;2023-02-02T04:15:20;7.20;;;1.80;;
325;SDS011;150;52.352;14.058;2023-02-02T04:20:56;4.67;;;1.70;;
325;SDS011;150;52.352;14.058;2023-02-02T04:23:55;5.13;;;1.55;;
325;SDS011;150;52.352;14.058;2023-02-02T04:29:44;6.18;;;1.75;;
325;SDS011;150;52.352;14.058;2023-02-02T04:32:30;5.35;;;1.33;;
325;SDS011;150;52.352;14.058;2023-02-02T04:35:06;4.82;;;1.67;;
325;SDS011;150;52.352;14.058;2023-02-02T04:37:42;6.10;;;1.15;;
325;SDS011;150;52.352;14.058;2023-02-02T04:40:09;6.60;;;1.83;;
325;SDS011;150;52.352;14.058;2023-02-02T04:49:51;5.18;;;1.52;;
325;SDS011;150;52.352;14.058;2023-02-02T04:53:03;3.42;;;1.58;;
325;SDS011;150;52.352;14.058;2023-02-02T04:59:18;6.40;;;2.00;;
325;SDS011;150;52.352;14.058;2023-02-02T05:01:57;5.00;;;1.10;;
325;SDS011;150;52.352;14.058;2023-02-02T05:05:12;8.60;;;1.65;;
325;SDS011;150;52.352;14.058;2023-02-02T05:08:29;3.67;;;1.33;;
325;SDS011;150;52.352;14.058;2023-02-02T05:14:07;5.10;;;1.45;;
325;SDS011;150;52.352;14.058;2023-02-02T05:14:56;3.10;;;1.10;;
325;SDS011;150;52.352;14.058;2023-02-02T05:17:40;1.92;;;0.98;;
325;SDS011;150;52.352;14.058;2023-02-02T05:21:07;2.65;;;1.30;;
325;SDS011;150;52.352;14.058;2023-02-02T05:23:34;6.00;;;1.38;;
325;SDS011;150;52.352;14.058;2023-02-02T05:26:26;4.70;;;1.00;;
325;SDS011;150;52.352;14.058;2023-02-02T05:30:00;3.90;;;1.50;;
325;SDS011;150;52.352;14.058;2023-02-02T06:03:08;7.00;;;1.40;;
325;SDS011;150;52.352;14.058;2023-02-02T06:13:24;8.07;;;1.65;;
325;SDS011;150;52.352;14.058;2023-02-02T06:20:32;3.00;;;1.50;;
325;SDS011;150;52.352;14.058;2023-02-02T06:23:13;6.38;;;1.40;;
325;SDS011;150;52.352;14.058;2023-02-02T06:26:23;8.02;;;1.30;;
325;SDS011;150;52.352;14.058;2023-02-02T06:56:38;5.05;;;1.20;;
325;SDS011;150;52.352;14.058;2023-02-02T07:02:28;4.97;;;1.70;;
325;SDS011;150;52.352;14.058;2023-02-02T07:05:09;5.35;;;1.63;;
325;SDS011;150;52.352;14.058;2023-02-02T07:11:39;5.10;;;1.40;;
325;SDS011;150;52.352;14.058;2023-02-02T08:04:45;8.32;;;1.90;;
325;SDS011;150;52.352;14.058;2023-02-02T08:37:38;12.60;;;4.72;;
325;SDS011;150;52.352;14.058;2023-02-02T09:38:12;7.75;;;1.55;;
325;SDS011;150;52.352;14.058;2023-02-02T10:13:53;9.50;;;2.33;;
325;SDS011;150;52.352;14.058;2023-02-02T10:24:16;5.00;;;1.20;;
325;SDS011;150;52.352;14.058;2023-02-02T10:27:13;5.97;;;2.00;;
325;SDS011;150;52.352;14.058;2023-02-02T11:10:55;5.00;;;0.98;;
325;SDS011;150;52.352;14.058;2023-02-02T11:14:10;2.10;;;0.80;;
325;SDS011;150;52.352;14.058;2023-02-02T11:17:23;5.05;;;1.20;;
325;SDS011;150;52.352;14.058;2023-02-02T11:30:58;3.42;;;1.02;;
325;SDS011;150;52.352;14.058;2023-02-02T11:37:13;4.03;;;1.25;;
325;SDS011;150;52.352;14.058;2023-02-02T11:47:14;11.75;;;4.60;;
325;SDS011;150;52.352;14.058;2023-02-02T11:53:25;3.63;;;0.77;;
325;SDS011;150;52.352;14.058;2023-02-02T12:03:32;3.28;;;1.02;;
325;SDS011;150;52.352;14.058;2023-02-02T12:11:09;2.90;;;1.00;;
325;SDS011;150;52.352;14.058;2023-02-02T12:47:32;5.25;;;1.10;;
325;SDS011;150;52.352;14.058;2023-02-02T12:50:29;3.65;;;1.42;;
325;SDS011;150;52.352;14.058;2023-02-02T12:53:46;4.95;;;0.88;;
325;SDS011;150;52.352;14.058;2023-02-02T12:59:23;2.90;;;0.70;;
325;SDS011;150;52.352;14.058;2023-02-02T13:04:54;5.15;;;0.93;;
325;SDS011;150;52.352;14.058;2023-02-02T13:16:06;3.90;;;0.90;;
325;SDS011;150;52.352;14.058;2023-02-02T14:09:56;1.30;;;0.70;;
325;SDS011;150;52.352;14.058;2023-02-02T14:15:14;1.65;;;0.70;;
325;SDS011;150;52.352;14.058;2023-02-02T14:17:54;5.10;;;0.60;;
325;SDS011;150;52.352;14.058;2023-02-02T14:26:42;1.40;;;0.80;;
325;SDS011;150;52.352;14.058;2023-02-02T14:32:40;1.70;;;0.80;;
325;SDS011;150;52.352;14.058;2023-02-02T14:38:19;2.40;;;0.80;;
325;SDS011;150;52.352;14.058;2023-02-02T14:41:16;2.60;;;1.00;;
325;SDS011;150;52.352;14.058;2023-02-02T14:44:14;1.80;;;0.70;;
325;SDS011;150;52.352;14.058;2023-02-02T14:46:50;2.67;;;0.98;;
325;SDS011;150;52.352;14.058;2023-02-02T14:49:26;4.60;;;1.00;;
325;SDS011;150;52.352;14.058;2023-02-02T14:52:15;3.70;;;0.90;;
325;SDS011;150;52.352;14.058;2023-02-02T14:54:53;2.30;;;0.60;;
325;SDS011;150;52.352;14.058;2023-02-02T14:57:30;2.80;;;1.23;;
325;SDS011;150;52.352;14.058;2023-02-02T15:00:20;1.50;;;0.70;;
325;SDS011;150;52.352;14.058;2023-02-02T15:02:50;3.70;;;0.80;;
325;SDS011;150;52.352;14.058;2023-02-02T15:05:34;2.80;;;0.93;;
325;SDS011;150;52.352;14.058;2023-02-02T15:11:01;4.40;;;0.90;;
325;SDS011;150;52.352;14.058;2023-02-02T15:14:01;2.60;;;1.10;;
325;SDS011;150;52.352;14.058;2023-02-02T15:16:48;3.60;;;1.75;;
325;SDS011;150;52.352;14.058;2023-02-02T15:19:24;3.35;;;1.60;;
325;SDS011;150;52.352;14.058;2023-02-02T15:22:15;2.22;;;1.42;;
325;SDS011;150;52.352;14.058;2023-02-02T15:24:58;3.92;;;1.40;;
325;SDS011;150;52.352;14.058;2023-02-02T15:28:08;4.00;;;1.40;;
325;SDS011;150;52.352;14.058;2023-02-02T15:30:54;4.60;;;1.40;;
325;SDS011;150;52.352;14.058;2023-02-02T15:33:50;4.50;;;1.10;;
325;SDS011;150;52.352;14.058;2023-02-02T15:36:45;4.05;;;1.20;;
325;SDS011;150;52.352;14.058;2023-02-02T15:39:39;2.28;;;0.90;;
325;SDS011;150;52.352;14.058;2023-02-02T15:42:14;2.00;;;1.00;;
325;SDS011;150;52.352;14.058;2023-02-02T15:45:23;2.80;;;1.10;;
325;SDS011;150;52.352;14.058;2023-02-02T15:48:19;2.63;;;1.02;;
325;SDS011;150;52.352;14.058;2023-02-02T15:53:52;2.47;;;1.30;;
325;SDS011;150;52.352;14.058;2023-02-02T15:56:27;2.00;;;1.10;;
325;SDS011;150;52.352;14.058;2023-02-02T15:58:56;2.83;;;1.80;;
325;SDS011;150;52.352;14.058;2023-02-02T16:01:42;3.90;;;1.10;;
325;SDS011;150;52.352;14.058;2023-02-02T16:04:16;2.13;;;1.17;;
325;SDS011;150;52.352;14.058;2023-02-02T16:07:10;4.05;;;1.40;;
325;SDS011;150;52.352;14.058;2023-02-02T16:09:45;2.72;;;1.00;;
325;SDS011;150;52.352;14.058;2023-02-02T16:12:13;1.53;;;1.10;;
325;SDS011;150;52.352;14.058;2023-02-02T16:14:53;3.72;;;1.60;;
325;SDS011;150;52.352;14.058;2023-02-02T16:17:30;6.32;;;3.55;;
325;SDS011;150;52.352;14.058;2023-02-02T16:20:09;5.27;;;3.73;;
325;SDS011;150;52.352;14.058;2023-02-02T16:25:27;6.03;;;3.47;;
325;SDS011;150;52.352;14.058;2023-02-02T16:27:57;5.68;;;4.40;;
325;SDS011;150;52.352;14.058;2023-02-02T16:30:42;7.68;;;4.43;;
325;SDS011;150;52.352;14.058;2023-02-02T16:33:27;3.05;;;2.40;;
325;SDS011;150;52.352;14.058;2023-02-02T16:35:55;4.03;;;2.20;;
325;SDS011;150;52.352;14.058;2023-02-02T16:38:30;5.35;;;1.90;;
325;SDS011;150;52.352;14.058;2023-02-02T16:41:07;4.80;;;3.35;;
325;SDS011;150;52.352;14.058;2023-02-02T16:46:15;7.53;;;4.60;;
325;SDS011;150;52.352;14.058;2023-02-02T16:49:22;13.73;;;8.65;;
325;SDS011;150;52.352;14.058;2023-02-02T16:52:05;17.10;;;13.40;;
325;SDS011;150;52.352;14.058;2023-02-02T16:54:56;28.73;;;20.92;;
325;SDS011;150;52.352;14.058;2023-02-02T16:57:46;30.02;;;22.63;;
325;SDS011;150;52.352;14.058;2023-02-02T17:00:51;31.65;;;24.23;;
325;SDS011;150;52.352;14.058;2023-02-02T17:03:34;25.80;;;20.60;;
325;SDS011;150;52.352;14.058;2023-02-02T17:06:12;26.13;;;18.85;;
325;SDS011;150;52.352;14.058;2023-02-02T17:08:39;21.33;;;16.48;;
325;SDS011;150;52.352;14.058;2023-02-02T17:11:18;21.10;;;14.90;;
325;SDS011;150;52.352;14.058;2023-02-02T17:14:17;18.85;;;12.65;;
325;SDS011;150;52.352;14.058;2023-02-02T17:16:55;11.23;;;7.82;;
325;SDS011;150;52.352;14.058;2023-02-02T17:19:31;8.55;;;5.47;;
325;SDS011;150;52.352;14.058;2023-02-02T17:22:09;6.90;;;4.97;;
325;SDS011;150;52.352;14.058;2023-02-02T17:24:37;6.10;;;4.30;;
325;SDS011;150;52.352;14.058;2023-02-02T17:27:16;5.80;;;4.13;;
325;SDS011;150;52.352;14.058;2023-02-02T17:30:15;7.43;;;4.38;;
325;SDS011;150;52.352;14.058;2023-02-02T17:32:54;8.48;;;5.90;;
325;SDS011;150;52.352;14.058;2023-02-02T17:35:29;8.18;;;4.68;;
325;SDS011;150;52.352;14.058;2023-02-02T17:38:08;9.68;;;4.05;;
325;SDS011;150;52.352;14.058;2023-02-02T17:43:34;5.22;;;4.32;;
325;SDS011;150;52.352;14.058;2023-02-02T17:46:36;7.03;;;5.05;;
325;SDS011;150;52.352;14.058;2023-02-02T17:49:20;8.35;;;5.40;;
325;SDS011;150;52.352;14.058;2023-02-02T17:51:47;5.78;;;3.58;;
325;SDS011;150;52.352;14.058;2023-02-02T17:54:22;8.73;;;5.00;;
325;SDS011;150;52.352;14.058;2023-02-02T17:56:49;7.97;;;5.10;;
325;SDS011;150;52.352;14.058;2023-02-02T17:59:26;5.40;;;4.05;;
325;SDS011;150;52.352;14.058;2023-02-02T18:02:08;6.50;;;5.03;;
325;SDS011;150;52.352;14.058;2023-02-02T18:05:04;9.98;;;5.05;;
325;SDS011;150;52.352;14.058;2023-02-02T18:07:59;8.95;;;4.97;;
325;SDS011;150;52.352;14.058;2023-02-02T18:13:25;8.93;;;7.18;;
325;SDS011;150;52.352;14.058;2023-02-02T18:16:04;10.50;;;6.97;;
325;SDS011;150;52.352;14.058;2023-02-02T18:19:13;16.85;;;11.98;;
325;SDS011;150;52.352;14.058;2023-02-02T18:21:55;19.90;;;11.50;;
325;SDS011;150;52.352;14.058;2023-02-02T18:24:56;16.70;;;9.82;;
325;SDS011;150;52.352;14.058;2023-02-02T18:27:33;15.10;;;11.32;;
325;SDS011;150;52.352;14.058;2023-02-02T18:30:28;20.40;;;12.30;;
325;SDS011;150;52.352;14.058;2023-02-02T18:33:44;18.45;;;14.52;;
325;SDS011;150;52.352;14.058;2023-02-02T18:36:42;28.40;;;14.13;;
325;SDS011;150;52.352;14.058;2023-02-02T18:45:28;18.08;;;11.95;;
325;SDS011;150;52.352;14.058;2023-02-02T18:48:25;18.77;;;13.30;;
325;SDS011;150;52.352;14.058;2023-02-02T18:51:16;17.25;;;12.32;;
325;SDS011;150;52.352;14.058;2023-02-02T18:54:01;18.67;;;13.70;;
325;SDS011;150;52.352;14.058;2023-02-02T18:56:28;17.98;;;12.65;;
325;SDS011;150;52.352;14.058;2023-02-02T18:59:22;18.45;;;11.10;;
325;SDS011;150;52.352;14.058;2023-02-02T19:01:59;19.40;;;11.60;;
325;SDS011;150;52.352;14.058;2023-02-02T19:04:41;12.63;;;9.30;;
325;SDS011;150;52.352;14.058;2023-02-02T19:07:36;14.27;;;10.07;;
325;SDS011;150;52.352;14.058;2023-02-02T19:10:21;10.93;;;9.73;;
325;SDS011;150;52.352;14.058;2023-02-02T19:13:04;13.23;;;10.98;;
325;SDS011;150;52.352;14.058;2023-02-02T19:15:53;13.50;;;9.50;;
325;SDS011;150;52.352;14.058;2023-02-02T19:21:17;22.83;;;14.25;;
325;SDS011;150;52.352;14.058;2023-02-02T19:23:54;17.17;;;12.33;;
325;SDS011;150;52.352;14.058;2023-02-02T19:26:37;16.67;;;12.23;;
325;SDS011;150;52.352;14.058;2023-02-02T19:29:24;18.55;;;12.48;;
325;SDS011;150;52.352;14.058;2023-02-02T19:32:16;19.60;;;15.02;;
325;SDS011;150;52.352;14.058;2023-02-02T19:35:12;20.33;;;13.93;;
325;SDS011;150;52.352;14.058;2023-02-02T19:38:02;17.58;;;12.73;;
325;SDS011;150;52.352;14.058;2023-02-02T19:40:32;16.95;;;12.20;;
325;SDS011;150;52.352;14.058;2023-02-02T19:43:43;15.65;;;10.80;;
325;SDS011;150;52.352;14.058;2023-02-02T19:46:58;16.03;;;12.20;;
325;SDS011;150;52.352;14.058;2023-02-02T19:49:32;15.30;;;9.60;;
325;SDS011;150;52.352;14.058;2023-02-02T19:52:15;13.52;;;11.15;;
325;SDS011;150;52.352;14.058;2023-02-02T19:54:57;16.80;;;12.52;;
325;SDS011;150;52.352;14.058;2023-02-02T19:57:34;19.65;;;12.75;;
325;SDS011;150;52.352;14.058;2023-02-02T20:00:14;16.80;;;13.30;;
325;SDS011;150;52.352;14.058;2023-02-02T20:02:55;17.80;;;12.77;;
325;SDS011;150;52.352;14.058;2023-02-02T20:05:50;19.30;;;10.00;;
325;SDS011;150;52.352;14.058;2023-02-02T20:11:59;14.75;;;11.02;;
325;SDS011;150;52.352;14.058;2023-02-02T20:14:28;15.70;;;9.68;;
325;SDS011;150;52.352;14.058;2023-02-02T20:17:05;13.27;;;10.02;;
325;SDS011;150;52.352;14.058;2023-02-02T20:19:43;12.55;;;8.82;;
325;SDS011;150;52.352;14.058;2023-02-02T20:22:22;9.07;;;6.50;;
325;SDS011;150;52.352;14.058;2023-02-02T20:25:00;10.80;;;6.18;;
325;SDS011;150;52.352;14.058;2023-02-02T20:27:31;10.63;;;6.60;;
325;SDS011;150;52.352;14.058;2023-02-02T20:30:19;7.55;;;6.68;;
325;SDS011;150;52.352;14.058;2023-02-02T20:32:58;7.80;;;6.10;;
325;SDS011;150;52.352;14.058;2023-02-02T20:35:36;10.63;;;7.28;;
325;SDS011;150;52.352;14.058;2023-02-02T20:38:17;8.70;;;5.50;;
325;SDS011;150;52.352;14.058;2023-02-02T20:40:49;8.95;;;5.22;;
325;SDS011;150;52.352;14.058;2023-02-02T20:43:30;6.35;;;5.22;;
325;SDS011;150;52.352;14.058;2023-02-02T20:46:02;7.90;;;4.82;;
325;SDS011;150;52.352;14.058;2023-02-02T20:48:41;7.25;;;5.55;;
325;SDS011;150;52.352;14.058;2023-02-02T20:51:23;8.85;;;7.45;;
325;SDS011;150;52.352;14.058;2023-02-02T20:53:52;13.73;;;10.05;;
325;SDS011;150;52.352;14.058;2023-02-02T20:56:28;14.77;;;9.40;;
325;SDS011;150;52.352;14.058;2023-02-02T20:59:17;15.57;;;10.00;;
325;SDS011;150;52.352;14.058;2023-02-02T21:01:44;15.27;;;9.80;;
325;SDS011;150;52.352;14.058;2023-02-02T21:04:17;16.30;;;8.90;;
325;SDS011;150;52.352;14.058;2023-02-02T21:06:46;13.02;;;9.88;;
325;SDS011;150;52.352;14.058;2023-02-02T21:09:16;13.38;;;9.60;;
325;SDS011;150;52.352;14.058;2023-02-02T21:11:51;13.77;;;9.75;;
325;SDS011;150;52.352;14.058;2023-02-02T21:14:27;17.10;;;9.85;;
325;SDS011;150;52.352;14.058;2023-02-02T21:17:06;15.55;;;8.40;;
325;SDS011;150;52.352;14.058;2023-02-02T21:19:44;11.95;;;9.00;;
325;SDS011;150;52.352;14.058;2023-02-02T21:22:16;14.05;;;8.90;;
325;SDS011;150;52.352;14.058;2023-02-02T21:27:30;11.05;;;6.88;;
325;SDS011;150;52.352;14.058;2023-02-02T21:30:16;9.73;;;7.25;;
325;SDS011;150;52.352;14.058;2023-02-02T21:32:56;8.60;;;6.82;;
325;SDS011;150;52.352;14.058;2023-02-02T21:35:30;7.63;;;6.30;;
325;SDS011;150;52.352;14.058;2023-02-02T21:38:05;10.10;;;6.40;;
325;SDS011;150;52.352;14.058;2023-02-02T21:40:52;8.30;;;5.88;;
325;SDS011;150;52.352;14.058;2023-02-02T21:43:59;10.95;;;5.70;;
325;SDS011;150;52.352;14.058;2023-02-02T21:46:40;6.93;;;5.77;;
325;SDS011;150;52.352;14.058;2023-02-02T21:49:13;7.78;;;5.40;;
325;SDS011;150;52.352;14.058;2023-02-02T21:51:50;6.68;;;5.85;;
325;SDS011;150;52.352;14.058;2023-02-02T21:54:39;6.10;;;4.82;;
325;SDS011;150;52.352;14.058;2023-02-02T21:57:13;8.68;;;6.05;;
325;SDS011;150;52.352;14.058;2023-02-02T22:00:02;10.20;;;5.90;;
325;SDS011;150;52.352;14.058;2023-02-02T22:02:53;6.57;;;5.28;;
325;SDS011;150;52.352;14.058;2023-02-02T22:05:25;14.98;;;7.80;;
325;SDS011;150;52.352;14.058;2023-02-02T22:08:16;13.63;;;9.10;;
325;SDS011;150;52.352;14.058;2023-02-02T22:10:50;12.80;;;7.60;;
325;SDS011;150;52.352;14.058;2023-02-02T22:13:18;9.90;;;6.18;;
325;SDS011;150;52.352;14.058;2023-02-02T22:15:51;13.43;;;7.97;;
325;SDS011;150;52.352;14.058;2023-02-02T22:18:20;14.00;;;7.25;;
325;SDS011;150;52.352;14.058;2023-02-02T22:20:53;8.20;;;5.40;;
325;SDS011;150;52.352;14.058;2023-02-02T22:23:20;8.65;;;6.10;;
325;SDS011;150;52.352;14.058;2023-02-02T22:25:50;9.65;;;5.50;;
325;SDS011;150;52.352;14.058;2023-02-02T22:28:20;10.57;;;6.55;;
325;SDS011;150;52.352;14.058;2023-02-02T22:30:48;8.77;;;6.03;;
325;SDS011;150;52.352;14.058;2023-02-02T22:33:24;9.00;;;6.10;;
325;SDS011;150;52.352;14.058;2023-02-02T22:35:51;8.10;;;5.20;;
325;SDS011;150;52.352;14.058;2023-02-02T22:38:23;7.50;;;5.35;;
325;SDS011;150;52.352;14.058;2023-02-02T22:40:50;5.93;;;4.50;;
325;SDS011;150;52.352;14.058;2023-02-02T22:43:21;7.43;;;5.10;;
325;SDS011;150;52.352;14.058;2023-02-02T22:46:08;8.93;;;5.07;;
325;SDS011;150;52.352;14.058;2023-02-02T22:48:38;11.57;;;5.20;;
325;SDS011;150;52.352;14.058;2023-02-02T22:51:07;7.78;;;4.82;;
325;SDS011;150;52.352;14.058;2023-02-02T22:53:40;7.82;;;4.43;;
325;SDS011;150;52.352;14.058;2023-02-02T22:56:07;6.80;;;5.07;;
325;SDS011;150;52.352;14.058;2023-02-02T22:58:42;6.57;;;4.95;;
325;SDS011;150;52.352;14.058;2023-02-02T23:01:11;4.93;;;3.90;;
325;SDS011;150;52.352;14.058;2023-02-02T23:03:40;11.38;;;4.22;;
325;SDS011;150;52.352;14.058;2023-02-02T23:06:07;5.75;;;4.00;;
325;SDS011;150;52.352;14.058;2023-02-02T23:08:37;7.35;;;3.50;;
325;SDS011;150;52.352;14.058;2023-02-02T23:11:04;3.70;;;3.40;;
325;SDS011;150;52.352;14.058;2023-02-02T23:13:30;6.75;;;4.78;;
325;SDS011;150;52.352;14.058;2023-02-02T23:15:57;7.03;;;4.00;;
325;SDS011;150;52.352;14.058;2023-02-02T23:18:24;6.15;;;3.97;;
325;SDS011;150;52.352;14.058;2023-02-02T23:20:52;6.55;;;4.05;;
325;SDS011;150;52.352;14.058;2023-02-02T23:23:19;6.50;;;3.95;;
325;SDS011;150;52.352;14.058;2023-02-02T23:25:46;8.15;;;4.10;;
325;SDS011;150;52.352;14.058;2023-02-02T23:28:13;7.20;;;4.35;;
325;SDS011;150;52.352;14.058;2023-02-02T23:30:39;4.78;;;3.90;;
325;SDS011;150;52.352;14.058;2023-02-02T23:33:06;5.10;;;4.00;;
325;SDS011;150;52.352;14.058;2023-02-02T23:35:33;6.43;;;4.60;;
325;SDS011;150;52.352;14.058;2023-02-02T23:38:03;5.80;;;3.37;;
325;SDS011;150;52.352;14.058;2023-02-02T23:40:32;7.75;;;4.57;;
325;SDS011;150;52.352;14.058;2023-02-02T23:43:01;5.00;;;3.03;;
325;SDS011;150;52.352;14.058;2023-02-02T23:45:33;5.65;;;4.00;;
325;SDS011;150;52.352;14.058;2023-02-02T23:48:03;5.53;;;3.30;;
325;SDS011;150;52.352;14.058;2023-02-02T23:50:31;5.25;;;3.53;;
325;SDS011;150;52.352;14.058;2023-02-02T23:53:01;5.25;;;3.47;;
325;SDS011;150;52.352;14.058;2023-02-02T23:55:30;7.35;;;3.78;;
325;SDS011;150;52.352;14.058;2023-02-02T23:58:00;4.70;;;3.40;;
